Time;durP1;ratioP1;P1;durP2;ratioP2;P2;SDS_P1;SDS_P2;PMS_P1;PMS_P2;Temp;Humidity;BMP_temperature;BMP_pressure;BME280_temperature;BME280_humidity;BME280_pressure;Samples;Min_cycle;Max_cycle;Signal;HPM_P1;HPM_P2
2022/07/17 00:00:21;;;;;;;;;;;21.80;59.80;;;;;;5055128;28;20002;-76
2022/07/17 00:02:48;;;;;;;;;;;21.80;59.80;;;;;;5052876;28;20009;-75
2022/07/17 00:05:15;;;;;;;;;;;21.70;59.80;;;;;;5054819;28;20002;-75
2022/07/17 00:07:42;;;;;;;;;;;21.70;59.80;;;;;;5055463;28;20395;-75
2022/07/17 00:10:09;;;;;;;;;;;21.70;59.90;;;;;;5061006;28;19933;-75
2022/07/17 00:12:36;;;;;;;;;;;21.70;60.60;;;;;;5053284;28;19933;-75
2022/07/17 00:15:05;;;;;;;;;;;21.60;60.00;;;;;;5056384;28;19975;-74
2022/07/17 00:17:32;;;;;;;;;;;21.70;60.10;;;;;;5058610;28;19924;-75
2022/07/17 00:19:59;;;;;;;;;;;21.60;60.00;;;;;;5054067;28;19932;-75
2022/07/17 00:22:27;;;;;;;;;;;21.50;60.00;;;;;;5052681;28;19947;-75
2022/07/17 00:24:54;;;;;;;;;;;21.50;60.00;;;;;;5058318;28;19928;-74
2022/07/17 00:27:21;;;;;;;;;;;21.50;60.10;;;;;;5061414;28;20445;-75
2022/07/17 00:29:48;;;;;;;;;;;21.50;60.20;;;;;;5051312;28;20021;-75
2022/07/17 00:32:16;;;;;;;;;;;21.40;59.60;;;;;;5057581;28;19974;-75
2022/07/17 00:34:43;;;;;;;;;;;21.40;60.10;;;;;;5057663;28;19936;-75
2022/07/17 00:37:10;;;;;;;;;;;21.40;60.20;;;;;;5050145;28;19929;-75
2022/07/17 00:39:37;;;;;;;;;;;21.40;60.20;;;;;;5061777;28;19932;-75
2022/07/17 00:42:03;;;;;;;;;;;21.40;60.30;;;;;;5055284;28;19932;-75
2022/07/17 00:44:30;;;;;;;;;;;21.30;60.20;;;;;;5063217;28;19933;-75
2022/07/17 00:46:57;;;;;;;;;;;21.30;60.30;;;;;;5055575;28;20413;-75
2022/07/17 00:49:25;;;;;;;;;;;21.30;60.30;;;;;;5057323;28;19932;-75
2022/07/17 00:51:52;;;;;;;;;;;21.20;60.30;;;;;;5054765;28;20473;-75
2022/07/17 00:54:19;;;;;;;;;;;21.20;60.30;;;;;;5050546;28;20671;-75
2022/07/17 00:56:47;;;;;;;;;;;21.20;60.40;;;;;;5056981;28;19932;-74
2022/07/17 00:59:15;;;;;;;;;;;21.20;60.50;;;;;;5055516;28;20151;-75
2022/07/17 01:01:42;;;;;;;;;;;21.20;60.50;;;;;;5056749;28;19925;-75
2022/07/17 01:04:09;;;;;;;;;;;21.10;60.50;;;;;;5053107;28;20024;-75
2022/07/17 01:06:37;;;;;;;;;;;21.10;60.50;;;;;;5057043;28;20077;-75
2022/07/17 01:09:04;;;;;;;;;;;21.10;60.60;;;;;;5054560;28;20034;-75
2022/07/17 01:11:31;;;;;;;;;;;21.10;60.70;;;;;;5055199;28;20043;-75
2022/07/17 01:13:58;;;;;;;;;;;;;;;;;;5051306;28;19928;-75
2022/07/17 01:16:25;;;;;;;;;;;21.00;60.10;;;;;;5052854;28;19937;-75
2022/07/17 01:18:52;;;;;;;;;;;21.00;60.70;;;;;;5051526;28;20375;-77
2022/07/17 01:21:20;;;;;;;;;;;21.00;60.70;;;;;;5053845;28;19993;-77
2022/07/17 01:23:47;;;;;;;;;;;20.90;60.70;;;;;;5050204;28;19932;-76
2022/07/17 01:26:14;;;;;;;;;;;20.90;60.70;;;;;;5052396;28;19933;-76
2022/07/17 01:28:41;;;;;;;;;;;20.80;60.70;;;;;;5050795;28;19929;-77
2022/07/17 01:31:08;;;;;;;;;;;20.80;60.70;;;;;;5051968;28;20070;-77
2022/07/17 01:33:35;;;;;;;;;;;20.80;60.70;;;;;;5057192;28;20018;-77
2022/07/17 01:36:01;;;;;;;;;;;20.80;60.80;;;;;;5046260;28;19932;-77
2022/07/17 01:38:30;;;;;;;;;;;20.80;60.90;;;;;;5059548;28;20427;-78
2022/07/17 01:40:57;;;;;;;;;;;20.70;60.70;;;;;;5053685;28;19985;-76
2022/07/17 01:43:23;;;;;;;;;;;20.70;60.90;;;;;;5053343;28;19950;-76
2022/07/17 01:45:50;;;;;;;;;;;20.70;60.90;;;;;;5052023;28;19968;-77
2022/07/17 01:48:24;;;;;;;;;;;20.70;61.00;;;;;;5053376;28;19928;-77
2022/07/17 01:50:51;;;;;;;;;;;20.60;60.90;;;;;;5047466;28;19924;-77
2022/07/17 01:53:18;;;;;;;;;;;20.60;60.90;;;;;;5049478;28;19943;-77
2022/07/17 01:55:46;;;;;;;;;;;20.60;60.90;;;;;;5055666;28;20064;-77
2022/07/17 01:58:13;;;;;;;;;;;20.60;61.10;;;;;;5050842;28;20008;-76
2022/07/17 02:00:40;;;;;;;;;;;20.50;61.00;;;;;;5051836;28;19924;-77
2022/07/17 02:03:07;;;;;;;;;;;20.50;61.00;;;;;;5049015;28;20307;-77
2022/07/17 02:05:33;;;;;;;;;;;20.50;61.00;;;;;;5054450;28;19939;-77
2022/07/17 02:08:00;;;;;;;;;;;20.50;61.00;;;;;;5050690;28;20030;-76
2022/07/17 02:10:27;;;;;;;;;;;20.40;60.90;;;;;;5056159;28;20352;-76
2022/07/17 02:12:57;;;;;;;;;;;20.40;61.00;;;;;;5071074;28;19978;-77
2022/07/17 02:15:23;;;;;;;;;;;20.40;61.10;;;;;;5056571;28;19932;-77
2022/07/17 02:17:51;;;;;;;;;;;20.30;61.00;;;;;;5053753;28;21490;-77
2022/07/17 02:20:18;;;;;;;;;;;20.30;61.00;;;;;;5055476;28;20010;-77
2022/07/17 02:22:45;;;;;;;;;;;20.30;61.00;;;;;;5054390;28;19924;-77
2022/07/17 02:25:13;;;;;;;;;;;20.30;61.10;;;;;;5055819;28;20647;-77
2022/07/17 02:27:40;;;;;;;;;;;20.20;61.00;;;;;;5053120;28;19932;-77
2022/07/17 02:30:09;;;;;;;;;;;20.20;61.10;;;;;;5056384;28;19932;-76
2022/07/17 02:32:36;;;;;;;;;;;20.20;61.20;;;;;;5054516;28;19940;-76
2022/07/17 02:35:03;;;;;;;;;;;20.10;61.20;;;;;;5056910;28;20489;-77
2022/07/17 02:37:30;;;;;;;;;;;20.10;61.20;;;;;;5055513;28;19928;-76
2022/07/17 02:39:58;;;;;;;;;;;20.10;61.20;;;;;;5058762;28;19931;-77
2022/07/17 02:42:26;;;;;;;;;;;20.10;61.20;;;;;;5056156;28;20003;-77
2022/07/17 02:44:54;;;;;;;;;;;20.00;61.20;;;;;;5059367;28;19968;-77
2022/07/17 02:47:26;;;;;;;;;;;20.00;61.30;;;;;;5056162;28;20402;-77
2022/07/17 02:49:53;;;;;;;;;;;20.00;61.40;;;;;;5054625;28;19968;-77
2022/07/17 02:52:20;;;;;;;;;;;20.00;61.50;;;;;;5070399;28;19946;-76
2022/07/17 02:54:48;;;;;;;;;;;19.90;61.30;;;;;;5072341;28;19925;-77
2022/07/17 02:57:15;;;;;;;;;;;19.90;61.40;;;;;;5055838;28;19928;-77
2022/07/17 02:59:42;;;;;;;;;;;19.90;61.50;;;;;;5115662;23;21348;-74
2022/07/17 03:02:09;;;;;;;;;;;19.80;61.40;;;;;;5029829;28;20017;-75
2022/07/17 03:04:37;;;;;;;;;;;19.80;62.10;;;;;;5014890;28;19944;-75
2022/07/17 03:07:04;;;;;;;;;;;19.80;61.40;;;;;;5015935;28;19933;-74
2022/07/17 03:09:31;;;;;;;;;;;19.80;61.40;;;;;;5023024;28;20008;-75
2022/07/17 03:11:58;;;;;;;;;;;19.70;61.50;;;;;;5021304;28;19932;-75
2022/07/17 03:14:25;;;;;;;;;;;19.70;61.50;;;;;;5020510;28;19929;-75
2022/07/17 03:16:52;;;;;;;;;;;19.70;61.50;;;;;;5015181;28;20447;-75
2022/07/17 03:19:19;;;;;;;;;;;19.60;61.40;;;;;;5013007;28;19933;-75
2022/07/17 03:21:47;;;;;;;;;;;19.60;61.40;;;;;;5018774;28;19932;-74
2022/07/17 03:24:14;;;;;;;;;;;19.60;61.40;;;;;;5017747;28;19933;-75
2022/07/17 03:26:41;;;;;;;;;;;19.50;61.30;;;;;;5019322;28;20568;-75
2022/07/17 03:29:08;;;;;;;;;;;19.50;61.30;;;;;;5011643;28;19936;-75
2022/07/17 03:31:35;;;;;;;;;;;19.50;61.30;;;;;;5011046;28;20406;-74
2022/07/17 03:34:02;;;;;;;;;;;19.40;61.40;;;;;;5016522;28;20068;-75
2022/07/17 03:36:28;;;;;;;;;;;19.40;61.40;;;;;;5018924;28;19932;-74
2022/07/17 03:38:57;;;;;;;;;;;19.40;61.40;;;;;;5017189;28;19975;-75
2022/07/17 03:41:23;;;;;;;;;;;19.40;61.40;;;;;;5017377;28;19972;-75
2022/07/17 03:43:50;;;;;;;;;;;19.30;61.40;;;;;;5018818;28;19971;-74
2022/07/17 03:46:17;;;;;;;;;;;19.30;61.40;;;;;;5016485;28;20565;-75
2022/07/17 03:48:44;;;;;;;;;;;19.30;61.50;;;;;;5018519;28;19936;-74
2022/07/17 03:51:11;;;;;;;;;;;19.30;61.50;;;;;;5012231;28;19936;-75
2022/07/17 03:53:37;;;;;;;;;;;19.20;61.50;;;;;;5017823;28;20482;-75
2022/07/17 03:56:06;;;;;;;;;;;19.20;61.50;;;;;;5027481;28;20024;-75
2022/07/17 03:58:33;;;;;;;;;;;19.20;61.60;;;;;;5016657;28;20354;-76
2022/07/17 04:01:00;;;;;;;;;;;19.10;61.50;;;;;;5016006;28;20040;-76
2022/07/17 04:03:27;;;;;;;;;;;19.10;61.60;;;;;;5018687;28;19929;-75
2022/07/17 04:05:54;;;;;;;;;;;19.10;61.70;;;;;;5013689;28;19929;-75
2022/07/17 04:08:21;;;;;;;;;;;19.10;61.60;;;;;;5015297;28;21006;-75
2022/07/17 04:10:48;;;;;;;;;;;19.10;61.60;;;;;;5016589;28;19939;-74
2022/07/17 04:13:16;;;;;;;;;;;19.00;61.70;;;;;;5010178;28;20433;-75
2022/07/17 04:15:56;;;;;;;;;;;19.00;61.70;;;;;;5018838;28;19972;-74
2022/07/17 04:18:24;;;;;;;;;;;18.90;61.60;;;;;;5014798;28;19925;-75
2022/07/17 04:20:51;;;;;;;;;;;18.90;61.70;;;;;;5018447;28;19983;-75
2022/07/17 04:23:18;;;;;;;;;;;18.90;61.80;;;;;;5016814;28;19934;-74
2022/07/17 04:25:45;;;;;;;;;;;18.90;61.80;;;;;;5019510;28;20403;-75
2022/07/17 04:28:12;;;;;;;;;;;18.80;61.70;;;;;;5013896;28;19939;-73
2022/07/17 04:30:41;;;;;;;;;;;18.80;61.80;;;;;;5020574;28;19929;-75
2022/07/17 04:33:08;;;;;;;;;;;18.80;61.80;;;;;;5009360;28;19940;-74
2022/07/17 04:35:34;;;;;;;;;;;18.70;61.70;;;;;;5019229;28;19933;-74
2022/07/17 04:38:01;;;;;;;;;;;18.70;61.80;;;;;;5015910;28;20075;-74
2022/07/17 04:40:28;;;;;;;;;;;18.70;61.90;;;;;;5018074;28;19929;-75
2022/07/17 04:42:55;;;;;;;;;;;18.70;61.80;;;;;;5016428;28;19925;-74
2022/07/17 04:45:22;;;;;;;;;;;18.70;61.80;;;;;;5011262;28;20350;-74
2022/07/17 04:47:50;;;;;;;;;;;18.60;61.70;;;;;;5016328;28;19933;-74
2022/07/17 04:50:17;;;;;;;;;;;18.60;61.80;;;;;;5017448;28;19929;-74
2022/07/17 04:52:44;;;;;;;;;;;18.50;61.60;;;;;;5013932;28;19940;-74
2022/07/17 04:55:11;;;;;;;;;;;18.50;61.80;;;;;;5001242;28;20812;-74
2022/07/17 04:57:38;;;;;;;;;;;18.50;61.60;;;;;;5012341;28;20576;-75
2022/07/17 05:00:06;;;;;;;;;;;18.40;61.80;;;;;;5007864;28;19937;-74
2022/07/17 05:02:33;;;;;;;;;;;18.30;62.10;;;;;;5009029;28;19926;-74
2022/07/17 05:05:04;;;;;;;;;;;18.20;62.50;;;;;;5022318;28;19968;-74
2022/07/17 05:07:31;;;;;;;;;;;18.10;62.70;;;;;;5012369;28;19984;-75
2022/07/17 05:09:58;;;;;;;;;;;18.10;63.70;;;;;;5007843;28;19937;-74
2022/07/17 05:12:25;;;;;;;;;;;18.00;63.10;;;;;;5011770;28;19926;-75
2022/07/17 05:14:52;;;;;;;;;;;18.00;63.40;;;;;;5010648;28;19929;-74
2022/07/17 05:17:18;;;;;;;;;;;17.90;63.50;;;;;;5027329;28;20024;-74
2022/07/17 05:19:45;;;;;;;;;;;17.90;63.80;;;;;;5015185;28;19929;-75
2022/07/17 05:22:13;;;;;;;;;;;17.90;64.00;;;;;;5012953;28;20347;-76
2022/07/17 05:24:40;;;;;;;;;;;17.90;64.20;;;;;;5013740;28;19951;-76
2022/07/17 05:27:07;;;;;;;;;;;17.90;64.30;;;;;;5008551;28;19972;-77
2022/07/17 05:29:34;;;;;;;;;;;17.90;64.40;;;;;;5010326;28;19987;-77
2022/07/17 05:32:01;;;;;;;;;;;17.90;64.60;;;;;;5006090;28;19940;-76
2022/07/17 05:34:27;;;;;;;;;;;17.90;64.80;;;;;;5010693;28;20003;-76
2022/07/17 05:36:54;;;;;;;;;;;17.90;64.80;;;;;;5013054;28;19936;-77
2022/07/17 05:39:22;;;;;;;;;;;17.90;64.90;;;;;;5032839;28;20342;-77
2022/07/17 05:41:49;;;;;;;;;;;17.90;64.90;;;;;;5007580;28;20634;-76
2022/07/17 05:44:16;;;;;;;;;;;17.90;65.00;;;;;;5022097;28;20342;-76
2022/07/17 05:46:43;;;;;;;;;;;17.90;65.00;;;;;;5014239;28;20020;-77
2022/07/17 05:49:10;;;;;;;;;;;17.90;65.00;;;;;;5005895;28;19940;-77
2022/07/17 05:51:37;;;;;;;;;;;18.00;65.00;;;;;;5009295;28;19944;-77
2022/07/17 05:54:04;;;;;;;;;;;18.00;64.90;;;;;;5006802;28;19976;-77
2022/07/17 05:56:32;;;;;;;;;;;18.00;64.90;;;;;;5013100;28;20356;-77
2022/07/17 05:58:59;;;;;;;;;;;18.00;64.90;;;;;;5008850;28;20363;-76
2022/07/17 06:01:25;;;;;;;;;;;18.10;65.00;;;;;;5008599;28;20012;-77
2022/07/17 06:03:52;;;;;;;;;;;18.10;65.00;;;;;;5011280;28;19933;-77
2022/07/17 06:06:20;;;;;;;;;;;18.20;65.00;;;;;;5009379;28;20017;-76
2022/07/17 06:08:47;;;;;;;;;;;18.20;65.00;;;;;;5014296;28;19929;-77
2022/07/17 06:11:14;;;;;;;;;;;18.20;65.10;;;;;;5009824;28;20383;-77
2022/07/17 06:13:42;;;;;;;;;;;18.30;65.20;;;;;;5011097;28;19929;-77
2022/07/17 06:16:09;;;;;;;;;;;18.30;65.20;;;;;;5014003;28;19925;-77
2022/07/17 06:18:36;;;;;;;;;;;18.40;65.40;;;;;;5012388;28;19937;-76
2022/07/17 06:21:03;;;;;;;;;;;18.40;65.30;;;;;;5011516;28;19998;-76
2022/07/17 06:23:30;;;;;;;;;;;18.40;65.30;;;;;;5010387;28;21440;-77
2022/07/17 06:25:57;;;;;;;;;;;18.40;65.30;;;;;;5007559;28;19933;-77
2022/07/17 06:28:24;;;;;;;;;;;18.50;65.40;;;;;;5012949;28;19963;-77
2022/07/17 06:30:52;;;;;;;;;;;18.50;65.40;;;;;;5017409;28;19972;-76
2022/07/17 06:33:19;;;;;;;;;;;18.50;65.50;;;;;;5013283;28;19929;-77
2022/07/17 06:35:45;;;;;;;;;;;18.50;65.80;;;;;;5019388;28;19925;-77
2022/07/17 06:38:12;;;;;;;;;;;18.60;65.60;;;;;;5014131;28;19941;-76
2022/07/17 06:40:39;;;;;;;;;;;18.60;65.70;;;;;;5010633;28;19979;-76
2022/07/17 06:43:06;;;;;;;;;;;18.60;65.70;;;;;;5025653;28;19933;-76
2022/07/17 06:45:33;;;;;;;;;;;18.60;65.80;;;;;;5024972;28;19925;-76
2022/07/17 06:48:02;;;;;;;;;;;18.60;65.80;;;;;;5011705;28;19933;-77
2022/07/17 06:50:29;;;;;;;;;;;18.60;65.80;;;;;;5003055;28;19956;-77
2022/07/17 06:52:56;;;;;;;;;;;18.60;65.80;;;;;;5013279;28;20466;-76
2022/07/17 06:55:23;;;;;;;;;;;18.70;65.90;;;;;;5006652;28;19929;-77
2022/07/17 06:57:49;;;;;;;;;;;18.70;66.00;;;;;;5014085;28;20451;-76
2022/07/17 07:00:18;;;;;;;;;;;18.70;66.10;;;;;;5013387;28;19933;-76
2022/07/17 07:02:45;;;;;;;;;;;18.70;66.10;;;;;;5020289;28;20458;-76
2022/07/17 07:05:13;;;;;;;;;;;18.70;66.10;;;;;;5019286;28;19929;-80
2022/07/17 07:07:40;;;;;;;;;;;18.80;66.30;;;;;;5026440;28;19979;-77
2022/07/17 07:10:08;;;;;;;;;;;18.80;66.40;;;;;;5021417;28;19932;-77
2022/07/17 07:12:34;;;;;;;;;;;18.80;66.40;;;;;;5024890;28;19935;-76
2022/07/17 07:15:01;;;;;;;;;;;18.90;66.40;;;;;;5021005;28;19929;-76
2022/07/17 07:17:28;;;;;;;;;;;18.90;66.40;;;;;;5018673;28;21758;-75
2022/07/17 07:19:55;;;;;;;;;;;18.90;66.50;;;;;;5018559;28;20019;-73
2022/07/17 07:22:23;;;;;;;;;;;19.00;66.60;;;;;;5014363;28;19957;-75
2022/07/17 07:24:50;;;;;;;;;;;19.00;66.70;;;;;;5015266;28;19924;-74
2022/07/17 07:27:17;;;;;;;;;;;19.00;66.60;;;;;;5013356;28;20383;-75
2022/07/17 07:29:43;;;;;;;;;;;19.20;66.70;;;;;;5012357;28;19935;-74
2022/07/17 07:32:10;;;;;;;;;;;19.20;66.40;;;;;;5020847;28;19933;-75
2022/07/17 07:34:37;;;;;;;;;;;19.20;66.30;;;;;;5023626;28;19931;-74
2022/07/17 07:37:04;;;;;;;;;;;19.20;66.40;;;;;;5035072;28;19936;-74
2022/07/17 07:39:32;;;;;;;;;;;19.20;66.50;;;;;;5027317;28;19932;-74
2022/07/17 07:41:59;;;;;;;;;;;19.20;66.50;;;;;;5023640;28;19925;-74
2022/07/17 07:44:26;;;;;;;;;;;19.20;66.50;;;;;;5024839;28;19929;-74
2022/07/17 07:46:53;;;;;;;;;;;19.20;66.60;;;;;;5022660;28;19939;-75
2022/07/17 07:49:20;;;;;;;;;;;19.30;66.70;;;;;;5024616;28;20934;-74
2022/07/17 07:51:46;;;;;;;;;;;19.30;66.70;;;;;;5021219;28;20501;-74
2022/07/17 07:54:13;;;;;;;;;;;19.30;66.70;;;;;;5022902;28;19926;-75
2022/07/17 07:56:41;;;;;;;;;;;19.30;67.30;;;;;;5033997;28;20417;-73
2022/07/17 07:59:08;;;;;;;;;;;19.40;66.70;;;;;;5042530;28;19948;-75
2022/07/17 08:01:35;;;;;;;;;;;19.40;66.70;;;;;;5026027;28;19925;-75
2022/07/17 08:04:02;;;;;;;;;;;19.40;66.70;;;;;;5022387;28;19971;-75
2022/07/17 08:06:29;;;;;;;;;;;19.40;66.70;;;;;;5021888;28;20027;-75
2022/07/17 08:08:56;;;;;;;;;;;19.40;66.70;;;;;;5014280;28;19929;-75
2022/07/17 08:11:24;;;;;;;;;;;19.50;66.80;;;;;;5022463;28;19928;-75
2022/07/17 08:13:52;;;;;;;;;;;19.50;66.80;;;;;;5023421;28;20399;-74
2022/07/17 08:16:19;;;;;;;;;;;19.50;66.70;;;;;;5023335;28;19935;-74
2022/07/17 08:18:46;;;;;;;;;;;19.50;66.50;;;;;;5035224;28;19960;-74
2022/07/17 08:21:13;;;;;;;;;;;19.50;66.50;;;;;;5020957;28;19956;-74
2022/07/17 08:23:40;;;;;;;;;;;19.50;66.60;;;;;;5023813;28;19932;-75
2022/07/17 08:26:06;;;;;;;;;;;19.50;66.60;;;;;;5018933;28;20450;-75
2022/07/17 08:28:33;;;;;;;;;;;19.50;66.50;;;;;;5021112;28;19925;-74
2022/07/17 08:31:02;;;;;;;;;;;19.50;66.50;;;;;;5021813;28;20457;-74
2022/07/17 08:33:29;;;;;;;;;;;19.60;66.50;;;;;;5022184;28;19932;-74
2022/07/17 08:35:55;;;;;;;;;;;19.60;66.60;;;;;;5020650;28;20020;-74
2022/07/17 08:38:22;;;;;;;;;;;19.60;66.50;;;;;;5022769;28;19929;-75
2022/07/17 08:40:52;;;;;;;;;;;19.60;66.30;;;;;;5018804;28;20434;-75
2022/07/17 08:43:19;;;;;;;;;;;19.60;66.30;;;;;;5020924;28;19971;-75
2022/07/17 08:45:46;;;;;;;;;;;19.60;66.40;;;;;;5023018;28;19933;-74
2022/07/17 08:48:15;;;;;;;;;;;19.70;66.40;;;;;;5023583;28;19925;-74
2022/07/17 08:50:42;;;;;;;;;;;19.60;66.30;;;;;;5026440;28;20411;-75
2022/07/17 08:53:09;;;;;;;;;;;19.60;66.30;;;;;;5032296;28;19932;-75
2022/07/17 08:55:36;;;;;;;;;;;19.70;66.20;;;;;;5026318;28;19939;-75
2022/07/17 08:58:04;;;;;;;;;;;19.70;66.20;;;;;;5018074;28;19944;-74
2022/07/17 09:00:31;;;;;;;;;;;19.70;66.20;;;;;;5020445;28;19930;-75
2022/07/17 09:02:58;;;;;;;;;;;19.80;66.00;;;;;;5025131;28;19925;-75
2022/07/17 09:05:28;;;;;;;;;;;19.80;66.00;;;;;;5020394;28;20009;-75
2022/07/17 09:07:55;;;;;;;;;;;19.80;65.90;;;;;;5037156;28;19932;-75
2022/07/17 09:10:30;;;;;;;;;;;19.80;65.80;;;;;;5022911;28;19933;-73
2022/07/17 09:12:57;;;;;;;;;;;19.80;65.60;;;;;;5022727;28;19936;-75
2022/07/17 09:15:24;;;;;;;;;;;19.80;65.60;;;;;;5024042;28;19925;-74
2022/07/17 09:17:51;;;;;;;;;;;19.80;65.60;;;;;;5016531;28;19925;-75
2022/07/17 09:20:19;;;;;;;;;;;19.80;65.70;;;;;;5031835;28;19926;-75
2022/07/17 09:22:55;;;;;;;;;;;19.80;65.80;;;;;;5036245;28;19925;-75
2022/07/17 09:25:32;;;;;;;;;;;19.80;65.80;;;;;;5024386;28;19987;-74
2022/07/17 09:28:01;;;;;;;;;;;19.90;65.70;;;;;;5022613;28;20213;-75
2022/07/17 09:30:27;;;;;;;;;;;19.90;65.70;;;;;;5034658;28;19933;-74
2022/07/17 09:32:55;;;;;;;;;;;19.90;65.70;;;;;;5033567;28;19933;-75
2022/07/17 09:35:22;;;;;;;;;;;19.90;65.70;;;;;;5021500;28;19971;-75
2022/07/17 09:37:53;;;;;;;;;;;19.90;65.80;;;;;;5018350;28;19929;-74
2022/07/17 09:43:02;;;;;;;;;;;19.90;65.70;;;;;;5034503;28;20284;-74
2022/07/17 09:45:29;;;;;;;;;;;19.90;65.70;;;;;;5021439;28;19932;-74
2022/07/17 09:47:57;;;;;;;;;;;20.00;65.70;;;;;;5151866;22;20344;-74
2022/07/17 09:50:24;;;;;;;;;;;20.00;65.40;;;;;;4974529;28;19939;-74
2022/07/17 09:52:55;;;;;;;;;;;20.00;65.50;;;;;;4965026;28;19926;-74
2022/07/17 09:55:23;;;;;;;;;;;20.00;65.60;;;;;;4974668;28;20021;-73
2022/07/17 09:57:51;;;;;;;;;;;20.00;65.60;;;;;;4968471;28;20210;-74
2022/07/17 10:00:18;;;;;;;;;;;19.90;65.50;;;;;;4974608;28;19991;-74
2022/07/17 10:02:45;;;;;;;;;;;20.00;65.20;;;;;;4976496;28;19951;-75
2022/07/17 10:05:15;;;;;;;;;;;20.10;65.10;;;;;;4970808;28;20064;-74
2022/07/17 10:07:42;;;;;;;;;;;20.10;65.00;;;;;;4989827;28;20343;-74
2022/07/17 10:10:10;;;;;;;;;;;20.10;64.80;;;;;;4978920;28;19930;-74
2022/07/17 10:12:38;;;;;;;;;;;20.10;64.50;;;;;;4999850;28;19935;-74
2022/07/17 10:15:06;;;;;;;;;;;20.10;64.50;;;;;;4966336;28;19988;-75
2022/07/17 10:17:33;;;;;;;;;;;20.10;64.50;;;;;;4971778;28;19926;-74
2022/07/17 10:20:00;;;;;;;;;;;20.20;64.50;;;;;;4962997;28;19961;-75
2022/07/17 10:22:27;;;;;;;;;;;20.20;64.60;;;;;;4965742;28;19926;-75
2022/07/17 10:24:54;;;;;;;;;;;20.20;64.70;;;;;;4972019;28;19930;-75
2022/07/17 10:27:23;;;;;;;;;;;20.20;64.60;;;;;;4978105;28;20347;-75
2022/07/17 10:30:00;;;;;;;;;;;20.20;64.60;;;;;;4967389;28;19995;-74
2022/07/17 10:32:27;;;;;;;;;;;20.20;64.70;;;;;;4998591;28;19957;-76
2022/07/17 10:34:58;;;;;;;;;;;20.20;64.60;;;;;;4986997;28;19926;-77
2022/07/17 10:37:26;;;;;;;;;;;20.20;64.90;;;;;;4978604;28;19926;-77
2022/07/17 10:39:57;;;;;;;;;;;20.20;64.70;;;;;;4980115;28;20464;-76
2022/07/17 10:42:42;;;;;;;;;;;20.30;64.80;;;;;;4966327;28;19932;-77
2022/07/17 10:45:10;;;;;;;;;;;20.30;64.60;;;;;;4968063;28;19926;-77
2022/07/17 10:47:47;;;;;;;;;;;20.30;64.60;;;;;;4979845;28;20023;-77
2022/07/17 10:50:14;;;;;;;;;;;20.30;64.60;;;;;;4964504;28;20297;-76
2022/07/17 10:52:41;;;;;;;;;;;20.30;64.50;;;;;;4968788;28;19954;-77
2022/07/17 10:55:18;;;;;;;;;;;20.30;64.50;;;;;;4972030;28;19934;-76
2022/07/17 10:57:47;;;;;;;;;;;20.40;64.50;;;;;;4975378;28;20032;-77
2022/07/17 11:00:15;;;;;;;;;;;20.40;64.40;;;;;;4970255;28;19925;-76
2022/07/17 11:02:42;;;;;;;;;;;20.40;64.20;;;;;;4976561;28;19937;-77
2022/07/17 11:05:09;;;;;;;;;;;20.40;64.20;;;;;;4975161;28;19926;-77
2022/07/17 11:07:36;;;;;;;;;;;20.40;63.90;;;;;;4977390;28;19930;-76
2022/07/17 11:10:03;;;;;;;;;;;20.40;63.90;;;;;;4974949;28;19934;-76
2022/07/17 11:12:33;;;;;;;;;;;20.40;64.00;;;;;;4976658;28;20024;-77
2022/07/17 11:15:01;;;;;;;;;;;20.50;64.00;;;;;;4974485;28;20403;-77
2022/07/17 11:17:28;;;;;;;;;;;20.50;63.60;;;;;;4965414;28;20418;-77
2022/07/17 11:19:55;;;;;;;;;;;20.50;63.50;;;;;;4975657;28;20039;-76
2022/07/17 11:22:23;;;;;;;;;;;20.50;63.30;;;;;;4983170;28;20011;-77
2022/07/17 11:24:50;;;;;;;;;;;20.50;62.80;;;;;;4988094;28;19969;-77
2022/07/17 11:27:21;;;;;;;;;;;20.60;62.30;;;;;;4993723;28;20462;-76
2022/07/17 11:29:48;;;;;;;;;;;20.60;62.10;;;;;;4995190;28;19928;-76
2022/07/17 11:32:16;;;;;;;;;;;20.60;62.30;;;;;;4970431;28;20311;-77
2022/07/17 11:34:43;;;;;;;;;;;20.60;62.00;;;;;;4976491;28;20428;-76
2022/07/17 11:37:10;;;;;;;;;;;20.60;61.50;;;;;;4984150;28;20398;-77
2022/07/17 11:39:38;;;;;;;;;;;20.60;61.20;;;;;;5007134;28;20671;-77
2022/07/17 11:42:07;;;;;;;;;;;20.60;61.20;;;;;;4977319;28;19933;-76
2022/07/17 11:44:34;;;;;;;;;;;20.60;60.70;;;;;;4963089;28;20090;-77
2022/07/17 11:47:01;;;;;;;;;;;20.70;60.60;;;;;;4977430;28;20015;-77
2022/07/17 11:49:30;;;;;;;;;;;20.70;59.80;;;;;;4967122;28;19942;-77
2022/07/17 11:51:58;;;;;;;;;;;20.70;59.50;;;;;;4979800;28;19926;-76
2022/07/17 11:54:25;;;;;;;;;;;20.80;59.70;;;;;;4969015;28;19949;-76
2022/07/17 11:56:53;;;;;;;;;;;20.80;59.90;;;;;;4968198;28;19953;-76
2022/07/17 11:59:25;;;;;;;;;;;20.80;59.00;;;;;;4979675;28;19930;-77
2022/07/17 12:01:51;;;;;;;;;;;20.80;58.50;;;;;;4975625;28;20412;-76
2022/07/17 12:04:18;;;;;;;;;;;20.80;58.40;;;;;;4976275;28;19933;-77
2022/07/17 12:06:48;;;;;;;;;;;20.80;59.10;;;;;;4981129;28;20013;-77
2022/07/17 12:09:15;;;;;;;;;;;20.90;59.00;;;;;;4977234;28;19963;-76
2022/07/17 12:11:49;;;;;;;;;;;20.90;58.40;;;;;;4966169;28;19953;-77
2022/07/17 12:14:16;;;;;;;;;;;21.00;58.30;;;;;;4963368;28;19933;-76
2022/07/17 12:16:44;;;;;;;;;;;21.00;58.70;;;;;;4975942;28;20039;-77
2022/07/17 12:19:14;;;;;;;;;;;21.00;58.80;;;;;;4981943;28;19937;-75
2022/07/17 12:21:50;;;;;;;;;;;21.00;58.80;;;;;;4972191;28;20416;-76
2022/07/17 12:24:20;;;;;;;;;;;21.00;58.10;;;;;;4979982;28;20047;-73
2022/07/17 12:26:47;;;;;;;;;;;21.10;59.30;;;;;;4960908;28;19932;-74
2022/07/17 12:29:14;;;;;;;;;;;21.10;59.70;;;;;;4981941;28;19926;-73
2022/07/17 12:31:41;;;;;;;;;;;21.20;60.10;;;;;;4980019;28;20035;-74
2022/07/17 12:34:08;;;;;;;;;;;21.20;59.10;;;;;;4964837;28;20450;-75
2022/07/17 12:36:35;;;;;;;;;;;21.20;59.50;;;;;;4963474;28;19927;-74
2022/07/17 12:39:03;;;;;;;;;;;21.30;60.10;;;;;;4988020;28;19926;-73
2022/07/17 12:41:30;;;;;;;;;;;21.30;59.40;;;;;;4979103;28;19924;-75
2022/07/17 12:43:57;;;;;;;;;;;21.30;59.70;;;;;;4958423;28;19930;-75
2022/07/17 12:46:24;;;;;;;;;;;21.40;59.00;;;;;;4974126;28;20003;-74
2022/07/17 12:48:51;;;;;;;;;;;21.50;59.60;;;;;;4969625;28;19930;-74
2022/07/17 12:51:17;;;;;;;;;;;21.50;59.70;;;;;;4971964;28;19969;-75
2022/07/17 12:53:44;;;;;;;;;;;21.50;60.10;;;;;;4970061;28;20014;-75
2022/07/17 12:56:13;;;;;;;;;;;21.60;59.60;;;;;;4969210;28;19961;-75
2022/07/17 12:58:40;;;;;;;;;;;21.70;60.20;;;;;;4974111;28;19934;-75
2022/07/17 13:01:07;;;;;;;;;;;21.70;60.60;;;;;;4967581;28;19995;-75
2022/07/17 13:03:34;;;;;;;;;;;21.70;60.60;;;;;;4972806;28;20384;-75
2022/07/17 13:06:01;;;;;;;;;;;21.80;60.50;;;;;;4973475;28;20012;-75
2022/07/17 13:08:28;;;;;;;;;;;21.80;60.70;;;;;;4976226;28;20406;-75
2022/07/17 13:10:55;;;;;;;;;;;21.90;61.00;;;;;;4973633;28;19934;-74
2022/07/17 13:13:23;;;;;;;;;;;21.90;60.20;;;;;;4971236;28;20462;-75
2022/07/17 13:15:50;;;;;;;;;;;22.00;60.60;;;;;;4982345;28;19980;-74
2022/07/17 13:18:17;;;;;;;;;;;22.00;60.10;;;;;;4959048;28;20717;-74
2022/07/17 13:20:44;;;;;;;;;;;22.10;59.70;;;;;;4961937;28;19957;-74
2022/07/17 13:23:11;;;;;;;;;;;22.20;58.60;;;;;;4993744;28;19926;-75
2022/07/17 13:25:38;;;;;;;;;;;22.30;58.30;;;;;;4970224;28;20205;-75
2022/07/17 13:28:05;;;;;;;;;;;22.30;58.80;;;;;;4996254;28;19980;-75
2022/07/17 13:30:34;;;;;;;;;;;22.30;59.70;;;;;;4967540;28;19987;-75
2022/07/17 13:33:01;;;;;;;;;;;22.40;59.60;;;;;;4967801;28;19970;-74
2022/07/17 13:35:28;;;;;;;;;;;22.40;59.50;;;;;;4972294;28;19926;-75
2022/07/17 13:37:56;;;;;;;;;;;22.40;59.40;;;;;;4979398;28;20062;-75
2022/07/17 13:40:24;;;;;;;;;;;22.50;59.40;;;;;;4960588;28;19980;-74
2022/07/17 13:42:51;;;;;;;;;;;22.60;59.10;;;;;;4978210;28;20024;-74
2022/07/17 13:45:18;;;;;;;;;;;22.60;58.50;;;;;;4986104;28;20071;-75
2022/07/17 13:47:46;;;;;;;;;;;22.70;58.60;;;;;;4974784;28;19974;-75
2022/07/17 13:50:13;;;;;;;;;;;22.80;58.60;;;;;;4973110;28;20741;-75
2022/07/17 13:52:40;;;;;;;;;;;;;;;;;;4974817;28;20011;-74
2022/07/17 13:55:07;;;;;;;;;;;23.00;57.60;;;;;;4974206;28;19926;-75
2022/07/17 13:57:34;;;;;;;;;;;23.00;58.80;;;;;;4968873;28;20349;-75
2022/07/17 14:00:01;;;;;;;;;;;23.10;59.50;;;;;;4994328;28;20617;-75
2022/07/17 14:02:28;;;;;;;;;;;23.10;59.80;;;;;;4969875;28;20041;-75
2022/07/17 14:04:57;;;;;;;;;;;23.10;59.40;;;;;;4977922;28;19935;-75
2022/07/17 14:07:23;;;;;;;;;;;23.20;59.80;;;;;;4996005;28;19929;-75
2022/07/17 14:09:50;;;;;;;;;;;23.30;59.70;;;;;;4982778;28;19934;-74
2022/07/17 14:12:17;;;;;;;;;;;23.30;59.70;;;;;;4992996;28;19930;-75
2022/07/17 14:14:44;;;;;;;;;;;23.40;59.70;;;;;;4984259;28;19933;-73
2022/07/17 14:17:11;;;;;;;;;;;23.40;60.40;;;;;;4983765;28;20402;-75
2022/07/17 14:19:38;;;;;;;;;;;23.50;59.70;;;;;;4975636;28;20021;-75
2022/07/17 14:22:06;;;;;;;;;;;23.60;59.90;;;;;;4961547;28;19926;-74